createdAt,value
2018-09-09T00:03:56.927Z,14.7
2018-09-09T00:08:59.079Z,14.7
2018-09-09T00:14:01.437Z,14.7
2018-09-09T00:19:03.656Z,14.7
2018-09-09T00:24:06.053Z,14.7
2018-09-09T00:29:08.241Z,14.7
2018-09-09T00:34:10.720Z,14.6
2018-09-09T00:39:12.861Z,14.6
2018-09-09T00:44:15.155Z,14.6
2018-09-09T00:49:17.487Z,14.6
2018-09-09T00:54:19.797Z,14.6
2018-09-09T00:59:22.063Z,14.6
2018-09-09T01:04:24.296Z,14.6
2018-09-09T01:09:26.596Z,14.7
2018-09-09T01:14:28.958Z,14.6
2018-09-09T01:19:31.180Z,14.6
2018-09-09T01:24:33.504Z,14.6
2018-09-09T01:29:35.824Z,14.5
2018-09-09T01:34:39.341Z,14.5
2018-09-09T01:39:40.469Z,14.5
2018-09-09T01:44:42.739Z,14.5
2018-09-09T01:49:45.019Z,14.5
2018-09-09T01:54:47.223Z,14.4
2018-09-09T01:59:49.659Z,14.3
2018-09-09T02:04:51.919Z,14.3
2018-09-09T02:09:54.172Z,14.3
2018-09-09T02:14:56.480Z,14.3
2018-09-09T02:19:58.697Z,14.3
2018-09-09T02:25:01.066Z,14.3
2018-09-09T02:30:03.474Z,14.2
2018-09-09T02:35:05.654Z,14.1
2018-09-09T02:40:07.894Z,14
2018-09-09T02:50:12.501Z,13.8
2018-09-09T02:55:14.771Z,13.7
2018-09-09T03:00:17.144Z,13.7
2018-09-09T03:05:19.483Z,13.8
2018-09-09T03:10:21.676Z,13.7
2018-09-09T03:15:24.066Z,13.7
2018-09-09T03:20:27.263Z,13.6
2018-09-09T03:25:28.649Z,13.5
2018-09-09T03:30:30.871Z,13.5
2018-09-09T03:35:33.144Z,13.6
2018-09-09T03:40:35.520Z,13.6
2018-09-09T03:45:37.665Z,13.6
2018-09-09T03:50:40.048Z,13.5
2018-09-09T03:55:42.305Z,13.4
2018-09-09T04:00:45.832Z,13.4
2018-09-09T04:05:47.048Z,13.5
2018-09-09T04:10:49.328Z,13.5
2018-09-09T04:20:53.783Z,13.5
2018-09-09T04:25:56.023Z,13.6
2018-09-09T04:30:58.407Z,13.6
2018-09-09T04:36:00.731Z,13.6
2018-09-09T04:41:03.025Z,13.6
2018-09-09T04:46:05.383Z,13.6
2018-09-09T04:51:07.603Z,13.6
2018-09-09T04:56:09.824Z,13.7
2018-09-09T05:01:12.209Z,13.7
2018-09-09T05:06:14.422Z,13.7
2018-09-09T05:11:16.723Z,13.7
2018-09-09T05:16:19.005Z,13.6
2018-09-09T05:21:21.321Z,13.5
2018-09-09T05:26:23.666Z,13.4
2018-09-09T05:31:25.900Z,13.4
2018-09-09T05:36:28.157Z,13.3
2018-09-09T05:41:30.529Z,13.3
2018-09-09T05:46:32.782Z,13.3
2018-09-09T05:51:35.089Z,13.3
2018-09-09T05:56:37.416Z,13.4
2018-09-09T06:01:39.702Z,13.4
2018-09-09T06:06:42.035Z,13.5
2018-09-09T06:11:44.249Z,13.6
2018-09-09T06:16:46.545Z,13.7
2018-09-09T06:21:48.984Z,13.8
2018-09-09T06:26:52.256Z,13.9
2018-09-09T06:31:53.552Z,14
2018-09-09T06:36:55.793Z,14.1
2018-09-09T06:41:58.108Z,14.3
2018-09-09T06:47:00.359Z,14.4
2018-09-09T06:52:02.616Z,14.5
2018-09-09T06:57:04.958Z,14.7
2018-09-09T07:02:07.160Z,15
2018-09-09T07:07:09.528Z,15.4
2018-09-09T07:12:11.734Z,15.4
2018-09-09T07:17:14.267Z,15.5
2018-09-09T07:22:16.453Z,15.4
2018-09-09T07:27:18.649Z,15.5
2018-09-09T07:32:21.057Z,15.6
2018-09-09T07:37:23.262Z,15.7
2018-09-09T07:42:25.629Z,15.9
2018-09-09T07:47:27.877Z,16.200001
2018-09-09T07:52:30.183Z,16.200001
2018-09-09T07:57:32.536Z,16.200001
2018-09-09T08:02:34.768Z,16.200001
2018-09-09T08:07:37.168Z,16.4
2018-09-09T08:12:39.345Z,17.200001
2018-09-09T08:17:41.644Z,17.799999
2018-09-09T08:22:43.861Z,18.200001
2018-09-09T08:27:46.232Z,18.700001
2018-09-09T08:32:48.528Z,19.4
2018-09-09T08:37:50.748Z,19.6
2018-09-09T08:42:53.124Z,19.6
2018-09-09T08:47:55.446Z,19.6
2018-09-09T08:52:57.770Z,19.4
2018-09-09T08:58:00.064Z,19.5
2018-09-09T09:03:02.320Z,19.6
2018-09-09T09:08:04.564Z,19.6
2018-09-09T09:13:07.012Z,19.799999
2018-09-09T09:18:09.100Z,19.799999
2018-09-09T09:23:11.529Z,19.799999
2018-09-09T09:28:13.773Z,19.799999
2018-09-09T09:33:15.956Z,20.1
2018-09-09T09:38:18.446Z,20.200001
2018-09-09T09:43:21.746Z,20.9
2018-09-09T09:48:22.943Z,21.4
2018-09-09T09:53:25.269Z,21.4
2018-09-09T09:58:27.472Z,21.1
2018-09-09T10:03:29.850Z,21
2018-09-09T10:08:32.138Z,21
2018-09-09T10:13:34.462Z,21
2018-09-09T10:18:36.720Z,21.1
2018-09-09T10:23:39.095Z,21.200001
2018-09-09T10:28:41.390Z,21.200001
2018-09-09T10:33:43.700Z,21.200001
2018-09-09T10:38:45.817Z,21.200001
2018-09-09T10:43:48.144Z,21.1
2018-09-09T10:48:50.460Z,21.200001
2018-09-09T10:53:52.834Z,21.200001
2018-09-09T10:58:55.163Z,21.1
2018-09-09T11:03:57.265Z,21.1
2018-09-09T11:08:59.632Z,21
2018-09-09T11:14:01.933Z,21
2018-09-09T11:19:04.380Z,21.1
2018-09-09T11:24:06.463Z,21.200001
2018-09-09T11:29:08.920Z,21.299999
2018-09-09T11:34:11.062Z,21.6
2018-09-09T11:39:13.404Z,22.4
2018-09-09T11:44:15.649Z,22.9
2018-09-09T11:49:17.985Z,23
2018-09-09T11:54:20.282Z,23.1
2018-09-09T11:59:22.495Z,22.9
2018-09-09T12:04:24.956Z,22.700001
2018-09-09T12:09:27.250Z,22.5
2018-09-09T12:14:29.477Z,22.299999
2018-09-09T12:19:31.749Z,22.200001
2018-09-09T12:24:34.194Z,22.200001
2018-09-09T12:29:36.282Z,22.299999
2018-09-09T12:34:38.618Z,22.4
2018-09-09T12:39:40.926Z,22.6
2018-09-09T12:44:43.270Z,22.799999
2018-09-09T12:49:45.560Z,23.299999
2018-09-09T12:54:47.749Z,24.1
2018-09-09T12:59:50.130Z,24.4
2018-09-09T13:04:52.440Z,24.700001
2018-09-09T13:09:54.757Z,25.299999
2018-09-09T13:14:57.007Z,26.6
2018-09-09T13:19:59.331Z,27.299999
2018-09-09T13:25:01.552Z,27.9
2018-09-09T13:30:03.879Z,28.299999
2018-09-09T13:35:06.188Z,29
2018-09-09T13:40:08.468Z,29.4
2018-09-09T13:45:10.836Z,29.6
2018-09-09T13:50:13.106Z,29.5
2018-09-09T13:55:15.419Z,29.5
2018-09-09T14:00:17.749Z,29.5
2018-09-09T14:05:19.940Z,29.799999
2018-09-09T14:10:22.236Z,30.200001
2018-09-09T14:15:24.549Z,30.299999
2018-09-09T14:20:26.838Z,29.6
2018-09-09T14:25:30.440Z,29.799999
2018-09-09T14:30:31.466Z,29.799999
2018-09-09T14:35:33.751Z,29.200001
2018-09-09T14:40:36.072Z,29.200001
2018-09-09T14:45:38.344Z,29
2018-09-09T14:50:40.602Z,28.6
2018-09-09T14:55:42.949Z,28.700001
2018-09-09T15:00:45.178Z,28.700001
2018-09-09T15:05:47.491Z,28.299999
2018-09-09T15:10:49.777Z,28.299999
2018-09-09T15:15:52.077Z,28.1
2018-09-09T15:20:54.369Z,28.4
2018-09-09T15:25:56.689Z,28.299999
2018-09-09T15:30:58.946Z,28.200001
2018-09-09T15:36:01.370Z,28.200001
2018-09-09T15:41:03.540Z,28.200001
2018-09-09T15:46:05.829Z,28.1
2018-09-09T15:51:08.142Z,27.9
2018-09-09T15:56:10.428Z,27.9
2018-09-09T16:01:12.669Z,27.799999
2018-09-09T16:06:14.999Z,27.700001
2018-09-09T16:11:17.319Z,28.4
2018-09-09T16:16:19.559Z,27.9
2018-09-09T16:21:21.859Z,26.9
2018-09-09T16:26:24.184Z,26.200001
2018-09-09T16:31:26.514Z,26.9
2018-09-09T16:36:28.777Z,27.700001
2018-09-09T16:41:32.506Z,27.9
2018-09-09T16:46:33.309Z,27.1
2018-09-09T16:51:35.725Z,26.5
2018-09-09T16:56:37.968Z,26
2018-09-09T17:01:40.260Z,25.6
2018-09-09T17:06:42.533Z,25.200001
2018-09-09T17:11:44.831Z,24.9
2018-09-09T17:16:47.209Z,24.5
2018-09-09T17:21:49.502Z,24.299999
2018-09-09T17:26:51.764Z,24.1
2018-09-09T17:31:54.033Z,23.9
2018-09-09T17:36:56.311Z,23.799999
2018-09-09T17:41:58.583Z,23.5
2018-09-09T17:47:00.934Z,23.4
2018-09-09T17:52:03.179Z,23.200001
2018-09-09T17:57:05.501Z,23
2018-09-09T18:02:07.842Z,22.700001
2018-09-09T18:07:10.150Z,22.5
2018-09-09T18:12:12.335Z,22.299999
2018-09-09T18:17:14.604Z,21.9
2018-09-09T18:22:17.135Z,21.4
2018-09-09T18:27:20.378Z,21.1
2018-09-09T18:32:21.542Z,20.9
2018-09-09T18:37:23.953Z,20.799999
2018-09-09T18:42:26.128Z,20.6
2018-09-09T18:47:28.518Z,20.5
2018-09-09T18:52:30.808Z,20.200001
2018-09-09T18:57:32.980Z,20
2018-09-09T19:02:35.335Z,20
2018-09-09T19:07:37.505Z,20
2018-09-09T19:12:39.884Z,19.9
2018-09-09T19:17:42.168Z,19.799999
2018-09-09T19:22:44.421Z,19.9
2018-09-09T19:27:46.816Z,20
2018-09-09T19:32:49.092Z,20
2018-09-09T19:42:53.765Z,20
2018-09-09T19:47:56.039Z,20
2018-09-09T19:52:58.355Z,20
2018-09-09T19:58:00.631Z,19.9
2018-09-09T20:03:02.863Z,19.799999
2018-09-09T20:08:05.103Z,19.799999
2018-09-09T20:13:07.514Z,19.700001
2018-09-09T20:18:09.778Z,19.700001
2018-09-09T20:23:12.059Z,19.700001
2018-09-09T20:28:14.278Z,19.6
2018-09-09T20:33:16.526Z,19.4
2018-09-09T20:38:18.925Z,19.299999
2018-09-09T20:43:21.249Z,19.1
2018-09-09T20:48:26.609Z,19
2018-09-09T20:53:25.821Z,18.700001
2018-09-09T20:58:28.067Z,18.4
2018-09-09T21:03:30.449Z,18.200001
2018-09-09T21:08:32.672Z,17.9
2018-09-09T21:13:34.920Z,17.700001
2018-09-09T21:18:37.222Z,17.6
2018-09-09T21:23:39.488Z,17.6
2018-09-09T21:28:41.828Z,17.6
2018-09-09T21:33:44.176Z,17.5
2018-09-09T21:38:46.547Z,17.4
2018-09-09T21:43:48.715Z,17.299999
2018-09-09T21:48:51.110Z,17.1
2018-09-09T21:53:53.292Z,16.9
2018-09-09T21:58:55.617Z,16.799999
2018-09-09T22:03:57.903Z,16.6
2018-09-09T22:09:00.152Z,16.5
2018-09-09T22:14:04.764Z,16.299999
2018-09-09T22:19:04.816Z,16.1
2018-09-09T22:24:07.039Z,16
2018-09-09T22:29:09.468Z,15.8
2018-09-09T22:34:11.697Z,15.7
2018-09-09T22:39:13.893Z,15.6
2018-09-09T22:44:16.254Z,15.5
2018-09-09T22:49:18.632Z,15.4
2018-09-09T22:54:20.819Z,15.3
2018-09-09T22:59:23.142Z,15.3
2018-09-09T23:04:29.767Z,15.2
2018-09-09T23:09:27.725Z,15.6
2018-09-09T23:14:29.994Z,15.9
2018-09-09T23:19:32.318Z,16.1
2018-09-09T23:24:34.639Z,16.299999
2018-09-09T23:29:36.926Z,16.4
2018-09-09T23:34:39.192Z,16.5
2018-09-09T23:39:41.504Z,16.4
2018-09-09T23:44:43.844Z,16.4
2018-09-09T23:49:46.093Z,16.4
2018-09-09T23:54:49.769Z,16.4
2018-09-09T23:59:50.702Z,16.4
